Flight Track Log - Related Links

Times and Time Zones

All times are in EDT time to prevent confusion due to time zone crossing. See the SWA3685 flight status page for this flight to view local times or setup timezone preferences in your user account.


Time Position Orientation Groundspeed Altitude Reporting Facility
EDT Latitude Longitude Course Direction KTS MPH feet Rate Location/Type
Tue 02:45:19 PM 41.8000 -87.6833 82° East 199 229 2,600  Level Chicago TRACON
Tue 02:46:49 PM 41.8047 -87.5722 87° East 212 244 5,000 2,013 Climbing Chicago Center
Tue 02:47:51 PM 41.7981 -87.4703 95° East 268 308 7,700 3,048 Climbing Chicago Center
Tue 02:48:53 PM 41.7892 -87.3683 97° East 276 318 11,300 2,855 Climbing Chicago Center
Tue 02:49:55 PM 41.7789 -87.2572 97° East 299 344 13,600 2,710 Climbing Chicago Center
Tue 02:50:00 PM 41.8634 -87.0155 82° East  Level Estimated
Tue 02:50:57 PM 41.7644 -87.0936 97° East 366 421 16,900  Level Chicago Center
Tue 02:51:59 PM 41.7756 -86.9531 84° East 390 449 19,600 2,516 Climbing Chicago Center
Tue 02:53:01 PM 41.8361 -86.8292 57° Northeast 400 460 22,100 1,824 Climbing Chicago Center
Tue 02:54:04 PM 41.9008 -86.7050 55° Northeast 408 470 23,400 1,392 Climbing Chicago Center
Tue 02:55:06 PM 41.9739 -86.5547 57° Northeast 419 482 25,000 1,548 Climbing Chicago Center
Tue 02:56:08 PM 41.9789 -86.3978 87° East 424 488 26,600 1,694 Climbing Chicago Center
Tue 02:57:10 PM 41.9797 -86.2364 90° East 431 496 28,500 1,887 Climbing Chicago Center
Tue 02:58:12 PM 41.9781 -86.0733 91° East 437 503 30,500 2,081 Climbing Chicago Center
Tue 02:59:14 PM 41.9975 -85.9156 81° East 441 507 32,800 2,032 Climbing Chicago Center
Tue 03:00:16 PM 42.0464 -85.7547 68° East 422 486 34,700 1,790 Climbing Chicago Center
Tue 03:01:18 PM 42.0928 -85.6108 66° East 421 484 36,500 1,548 Climbing Chicago Center
Tue 03:02:20 PM 42.1133 -85.4642 79° East 403 464 37,900 1,152 Climbing Chicago Center
Tue 03:02:57 PM 42.1275 -85.3575 80° East 404 465 38,400 619 Climbing Cleveland Center
Tue 03:03:57 PM 42.1400 -85.2014 84° East 404 465 38,900 300 Climbing Cleveland Center
Tue 03:04:57 PM 42.1525 -85.0456 84° East 414 476 39,000 50 Climbing Cleveland Center
Tue 03:05:57 PM 42.1669 -84.8867 83° East 419 482 39,000  Level Cleveland Center
Tue 03:06:57 PM 42.1789 -84.7306 84° East 419 482 39,000  Level Cleveland Center
Tue 03:07:57 PM 42.1861 -84.5908 86° East 419 482 39,000  Level Cleveland Center
Tue 03:08:57 PM 42.1975 -84.4375 84° East 419 482 39,000  Level Cleveland Center
Tue 03:09:57 PM 42.2108 -84.2839 83° East 419 482 39,000  Level Cleveland Center
Tue 03:10:57 PM 42.2242 -84.1306 83° East 419 482 39,000  Level Cleveland Center
Tue 03:11:57 PM 42.2392 -83.9769 82° East 419 482 39,000  Level Cleveland Center
Tue 03:12:57 PM 42.2539 -83.8233 83° East 419 482 39,000  Level Cleveland Center
Tue 03:13:57 PM 42.2667 -83.6642 84° East 414 476 39,000  Level Cleveland Center
Tue 03:14:57 PM 42.2811 -83.5133 83° East 414 476 39,000  Level Cleveland Center
Tue 03:15:57 PM 42.2956 -83.3539 83° East 414 476 39,000  Level Cleveland Center
Tue 03:16:57 PM 42.3119 -83.1806 83° East 426 490 39,000  Level Cleveland Center
Tue 03:17:57 PM 42.3239 -83.0264 84° East 420 483 39,000  Level Cleveland Center
Tue 03:18:57 PM 42.3375 -82.8697 83° East 420 483 39,000  Level Cleveland Center
Tue 03:19:57 PM 42.3508 -82.7156 83° East 414 476 39,000  Level Cleveland Center
Tue 03:20:57 PM 42.3639 -82.5614 83° East 414 476 39,000  Level Cleveland Center
Tue 03:21:57 PM 42.3769 -82.4072 83° East 414 476 39,000  Level Cleveland Center
Tue 03:22:57 PM 42.3875 -82.2531 85° East 409 471 39,000  Level Cleveland Center
Tue 03:23:57 PM 42.4022 -82.1017 82° East 409 471 39,000  Level Cleveland Center
Tue 03:24:57 PM 42.4147 -81.9472 84° East 404 465 39,000  Level Cleveland Center
Tue 03:25:57 PM 42.4267 -81.7983 84° East 404 465 39,000  Level Cleveland Center
Tue 03:26:57 PM 42.4367 -81.6439 85° East 404 465 39,000  Level Cleveland Center
Tue 03:27:57 PM 42.4483 -81.4864 84° East 409 471 39,000  Level Cleveland Center
Tue 03:28:57 PM 42.4597 -81.3486 84° East 409 471 39,000  Level Cleveland Center
Tue 03:29:57 PM 42.4711 -81.1967 84° East 404 465 39,000  Level Cleveland Center
Tue 03:30:57 PM 42.4800 -81.0392 86° East 404 465 39,000  Level Cleveland Center
Tue 03:31:57 PM 42.4911 -80.8844 84° East 404 465 39,000  Level Cleveland Center
Tue 03:32:57 PM 42.5017 -80.7297 85° East 404 465 39,000  Level Cleveland Center
Tue 03:33:57 PM 42.5103 -80.5606 86° East 404 465 39,000  Level Cleveland Center
Tue 03:34:57 PM 42.5206 -80.4086 85° East 404 465 39,000  Level Cleveland Center
Tue 03:35:57 PM 42.5306 -80.2536 85° East 410 472 39,000  Level Cleveland Center
Tue 03:36:57 PM 42.5425 -80.0986 84° East 404 465 39,000  Level Cleveland Center
Tue 03:37:57 PM 42.5544 -79.9603 83° East 404 465 39,000  Level Cleveland Center
Tue 03:38:57 PM 42.5619 -79.8081 86° East 404 465 39,000  Level Cleveland Center
Tue 03:39:57 PM 42.5711 -79.6528 85° East 404 465 39,000  Level Cleveland Center
Tue 03:40:57 PM 42.5761 -79.4978 87° East 409 471 39,000  Level Cleveland Center
Tue 03:41:57 PM 42.5869 -79.3425 85° East 409 471 39,000  Level Cleveland Center
Tue 03:42:57 PM 42.5936 -79.1872 87° East 409 471 39,000  Level Cleveland Center
Tue 03:43:57 PM 42.6039 -79.0289 85° East 409 471 39,000  Level Cleveland Center
Tue 03:44:57 PM 42.6103 -78.8736 87° East 409 471 39,000  Level Cleveland Center
Tue 03:45:57 PM 42.6181 -78.7183 86° East 409 471 39,000  Level Cleveland Center
Tue 03:46:57 PM 42.6236 -78.5486 87° East 414 476 39,000  Level Cleveland Center
Tue 03:47:57 PM 42.6311 -78.3933 86° East 414 476 39,000  Level Cleveland Center
Tue 03:48:57 PM 42.6386 -78.2378 86° East 420 483 39,000  Level Cleveland Center
Tue 03:49:57 PM 42.6456 -78.0794 87° East 415 478 39,000  Level Cleveland Center
Tue 03:50:57 PM 42.6525 -77.9211 87° East 409 471 39,000  Level Cleveland Center
Tue 03:51:57 PM 42.6614 -77.7625 86° East 414 476 39,000 -350 Level Cleveland Center
Tue 03:52:57 PM 42.6636 -77.6042 89° East 414 476 38,300 -800 Descending Cleveland Center
Tue 03:53:57 PM 42.6717 -77.4428 86° East 414 476 37,400 -333 Descending Cleveland Center
Tue 03:56:51 PM 42.6864 -76.9942 87° East 390 449 37,000 -103 Descending Boston Center
Tue 03:57:51 PM 42.6906 -76.8361 88° East 409 471 37,000  Level Boston Center
Tue 03:58:51 PM 42.6967 -76.6753 87° East 416 479 37,000  Level Boston Center
Tue 04:00:03 PM 42.7003 -76.5172 88° East 411 473 37,000  Level Boston Center
Tue 04:01:03 PM 42.7058 -76.3594 87° East 411 473 37,000  Level Boston Center
Tue 04:02:03 PM 42.7119 -76.1844 87° East 418 481 37,000  Level Boston Center
Tue 04:03:03 PM 42.7147 -76.0292 89° East 418 481 37,000  Level Boston Center
Tue 04:04:03 PM 42.7197 -75.8656 88° East 418 481 37,000  Level Boston Center
Tue 04:05:03 PM 42.7203 -75.7044 90° East 418 481 37,000  Level Boston Center
Tue 04:06:03 PM 42.7247 -75.5464 88° East 418 481 37,000  Level Boston Center
Tue 04:07:03 PM 42.7269 -75.3825 89° East 418 481 37,000  Level Boston Center
Tue 04:08:03 PM 42.7311 -75.2217 88° East 423 487 37,000  Level Boston Center
Tue 04:09:03 PM 42.7328 -75.0606 89° East 423 487 37,000  Level Boston Center
Tue 04:10:03 PM 42.7344 -74.8936 89° East 423 487 37,000  Level Boston Center
Tue 04:11:03 PM 42.7358 -74.7328 89° East 423 487 37,000  Level Boston Center
Tue 04:12:03 PM 42.7431 -74.5717 86° East 423 487 37,000  Level Boston Center
Tue 04:13:03 PM 42.7417 -74.4106 91° East 423 487 37,000  Level Boston Center
Tue 04:14:03 PM 42.7425 -74.2494 90° East 423 487 37,000  Level Boston Center
Tue 04:15:03 PM 42.7450 -74.0856 89° East 423 487 37,000  Level Boston Center
Tue 04:16:03 PM 42.7450 -73.9244 90° East 423 487 37,000  Level Boston Center
Tue 04:17:03 PM 42.7428 -73.7603 91° East 423 487 37,000  Level Boston Center
Tue 04:18:03 PM 42.7281 -73.6017 97° East 423 487 37,000  Level Boston Center
Tue 04:19:03 PM 42.7108 -73.4403 98° East 423 487 37,000 -450 Level Boston Center
Tue 04:20:03 PM 42.6933 -73.2789 98° East 428 493 36,100 -864 Descending Boston Center
Tue 04:21:15 PM 42.6756 -73.1150 98° East 428 493 35,100 -1,636 Descending Boston Center
Tue 04:22:15 PM 42.6517 -72.8917 98° East 444 511 32,500 -2,950 Descending Boston Center
Tue 04:23:15 PM 42.6292 -72.7222 100° East 449 517 29,200 -3,200 Descending Boston Center
Tue 04:24:15 PM 42.6150 -72.5756 97° East 449 517 26,100 -3,150 Descending Boston Center
Tue 04:25:15 PM 42.5881 -72.3836 101° East 455 524 22,900 -2,800 Descending Boston Center
Tue 04:26:15 PM 42.5669 -72.2314 101° East 448 516 20,500 -2,350 Descending Boston Center
Tue 04:27:15 PM 42.5500 -72.0850 99° East 405 466 18,200 -2,150 Descending Boston Center
Tue 04:28:15 PM 42.5369 -71.9442 97° East 378 435 16,200 -2,100 Descending Boston Center
Tue 04:29:15 PM 42.5236 -71.8092 98° East 368 423 14,000 -1,864 Descending Boston Center
Tue 04:30:27 PM 42.5106 -71.6825 98° East 356 410 12,100 -1,552 Descending Boston Center
Tue 04:31:11 PM 42.5000 -71.5667 97° East 336 387 11,000 -641 Descending KA90
Tue 04:32:10 PM 42.4833 -71.4333 100° East 325 374 11,000 -319 Level KA90
Tue 04:33:04 PM 42.4833 -71.3333 90° East 307 353 10,400 -1,150 Descending KA90
Tue 04:34:10 PM 42.4667 -71.2167 101° East 292 336 8,700 -1,392 Descending KA90
Tue 04:35:09 PM 42.4667 -71.1167 90° East 284 327 7,500 -857 Descending KA90
Tue 04:36:09 PM 42.4500 -71.0167 103° East 242 278 7,000 -347 Descending KA90
Tue 04:37:10 PM 42.3833 -70.9833 160° South 232 267 6,800 -744 Descending KA90
Tue 04:38:10 PM 42.3167 -70.9500 160° South 230 265 5,500 -857 Descending KA90
Tue 04:39:16 PM 42.2500 -70.9500 180° South 217 250 5,000 -331 Descending KA90
Tue 04:40:17 PM 42.2000 -70.9667 194° South 212 244 4,800 -661 Descending KA90
Tue 04:41:05 PM 42.1833 -71.0167 246° West 201 231 3,800 -939 Descending KA90
Tue 04:42:12 PM 42.2167 -71.0833 304° West 207 238 3,000 -898 Descending KA90
Tue 04:43:12 PM 42.2667 -71.0500 26° Northeast 198 228 1,900 -1,008 Descending KA90
Tue 04:44:11 PM 42.3167 -71.0333 14° North 177 204 1,000 -915 Descending KA90

Login

Don't have an account? Register now (free) for customized features, flight alerts, and more!